Tropical Cyclones
[Index]
Main Index Home Page Stock Weather Photos Extreme Storms Discussion Storm News and Storm Chasing Reports Tropical Cyclones / Hurricanes / Typhoons Weather Data and Links Wild Fires / Bushfires Weather Observation Techniques Weather Picture Catalogue Tornado Pictures and Reports Stock Video Footage and DVDs for sale
Season 2007-2008 Tropical Cyclone DURGA Track Map
Season 2007-2008 Summaries: [BoM-AU] [JTWC-AU] [JTWC-SIO] [JTWC-SPAC] [JTWC-SH]
<<- Previous TC | JTWC 2007-2008 Season | Next TC ->>

click for intensity scale information  Lat/long Grid: Show Hide

 Date Labels: Show Hide

Joint Typhoon Warning Centre Cyclone Data

Name: DURGA

21 Apr 2008 06:00 UTC to 26 Apr 2008 00:00 UTC

    date/time    lat    long     hPa   cat  kts
2008-04-21 06    8.0    85.5    1007         20          
2008-04-21 12    8.4    86.5    1007         20          
2008-04-21 18    8.3    87.7    1004         25          
2008-04-22 00    8.3    89.0    1004         25          
2008-04-22 06    8.2    90.6    1000         30          
2008-04-22 12    8.2    92.6    1000         30          
2008-04-22 18    8.5    94.0     996         35          
2008-04-23 00    8.9    95.3     993    1    40          
2008-04-23 06    9.2    96.2     993    1    40          
2008-04-23 12    9.5    96.9     993    1    40          
2008-04-23 18    9.8    97.6     993    1    40          
2008-04-24 00   10.2    98.3     996         35          
2008-04-24 06   10.7    99.0     996         35          
2008-04-24 12   11.3    99.5     996         35          
2008-04-24 18   11.9    99.8    1000         30          
2008-04-25 00   12.7   100.1    1000         30          
2008-04-25 06   13.7   100.2    1000         30          
2008-04-25 12   14.7   100.1    1000         30          
2008-04-25 18   15.6    99.9    1004         25          
2008-04-26 00   16.4    99.7    1004         25          
Winds are 1-min average.

Tropical cyclone tracks developed by Michael Bath using data from the Joint Typhoon Warning Centre Best Tracks and Google Maps.


[Australian Severe Weather index] [Copyright Notice] [Email Contacts] [Search This Site] [Privacy Policy]
Document: tropical_cyclone_durga.htm Updated: 28 June 2017